Terminal Aerodrome Forecast
Issued by NWS Green Bay, WI

Home | Current Version | Previous Version | Graphics & Text | Print | Product List | Glossary On
Versions: 1 2 3 4 5 6 7 8 9 10 11 12 13 14 15 16 17 18 19 20 21 22 23 24 25 26 27 28 29 30 31 32 33 34 35 36 37 38
000
FTUS43 KGRB 252331
TAFGRB
TAF
KGRB 252331Z 2600/2624 28010G17KT P6SM VCSH SCT060 BKN090
      TEMPO 2600/2602 5SM -SHRA BKN040
     FM260200 29007KT P6SM VCSH SCT020 BKN070
     FM261200 29009KT P6SM SCT025 BKN040
     FM261600 31013KT P6SM VCSH BKN025
     FM262000 33013G23KT P6SM SCT025 BKN035
     FM262300 33010KT P6SM SCT090=

USA.gov is the U.S. government's official web portal to all federal, state and local government web resources and services.